createdAt,value
2023-01-29T00:01:47.452Z,99192.06
2023-01-29T00:04:14.558Z,99194.69
2023-01-29T00:06:41.603Z,99188.56
2023-01-29T00:09:08.690Z,99175.91
2023-01-29T00:11:35.841Z,99179.41
2023-01-29T00:14:02.890Z,99180.91
2023-01-29T00:16:29.941Z,99170.25
2023-01-29T00:18:57.107Z,99164.91
2023-01-29T00:21:25.065Z,99165.22
2023-01-29T00:23:55.225Z,99162.56
2023-01-29T00:26:22.470Z,99161.78
2023-01-29T00:28:49.707Z,99164.19
2023-01-29T00:31:22.470Z,99158.81
2023-01-29T00:33:49.788Z,99160.41
2023-01-29T00:36:18.204Z,99151.22
2023-01-29T00:38:54.388Z,99150.44
2023-01-29T00:41:40.380Z,99146.22
2023-01-29T00:44:26.564Z,99140.09
2023-01-29T00:46:54.603Z,99147.34
2023-01-29T00:49:21.953Z,99140.00
2023-01-29T00:52:09.067Z,99144.19
2023-01-29T00:54:36.298Z,99137.34
2023-01-29T00:57:04.394Z,99140.88
2023-01-29T00:59:31.445Z,99140.44
2023-01-29T01:02:17.259Z,99135.84
2023-01-29T01:04:44.567Z,99141.13
2023-01-29T01:07:14.501Z,99133.50
2023-01-29T01:10:00.706Z,99135.84
2023-01-29T01:12:28.459Z,99154.63
2023-01-29T01:14:55.712Z,99158.81
2023-01-29T01:17:23.086Z,99151.88
2023-01-29T01:19:50.533Z,99153.75
2023-01-29T01:22:17.724Z,99150.66
2023-01-29T01:24:44.806Z,99154.84
2023-01-29T01:27:12.469Z,99149.44
2023-01-29T01:29:40.001Z,99143.28
2023-01-29T01:32:07.125Z,99144.44
2023-01-29T01:34:34.498Z,99140.34
2023-01-29T01:37:01.584Z,99126.97
2023-01-29T01:39:28.679Z,99137.00
2023-01-29T01:41:55.740Z,99131.31
2023-01-29T01:44:51.899Z,99138.19
2023-01-29T01:47:46.589Z,99145.53
2023-01-29T01:50:24.851Z,99142.50
2023-01-29T01:52:55.023Z,99137.47
2023-01-29T01:55:25.390Z,99129.38
2023-01-29T01:57:56.268Z,99131.22
2023-01-29T02:00:24.977Z,99132.44
2023-01-29T02:03:11.185Z,99132.88
2023-01-29T02:05:58.147Z,99125.22
2023-01-29T02:09:07.515Z,99131.44
2023-01-29T02:11:34.607Z,99134.44
2023-01-29T02:14:01.848Z,99126.41
2023-01-29T02:16:29.051Z,99130.72
2023-01-29T02:18:56.450Z,99129.31
2023-01-29T02:21:35.146Z,99120.22
2023-01-29T02:24:29.431Z,99124.91
2023-01-29T02:27:12.617Z,99115.38
2023-01-29T02:29:49.051Z,99119.66
2023-01-29T02:32:31.918Z,99119.41
2023-01-29T02:35:25.060Z,99111.06
2023-01-29T02:37:58.309Z,99114.97
2023-01-29T02:40:37.698Z,99109.63
2023-01-29T02:43:13.507Z,99116.16
2023-01-29T02:45:48.976Z,99122.28
2023-01-29T02:48:20.293Z,99116.50
2023-01-29T02:50:54.384Z,99121.09
2023-01-29T02:53:46.011Z,99124.56
2023-01-29T02:56:28.066Z,99126.56
2023-01-29T02:59:01.049Z,99127.66
2023-01-29T03:01:34.641Z,99135.25
2023-01-29T03:04:04.837Z,99130.25
2023-01-29T03:06:35.754Z,99131.75
2023-01-29T03:09:06.723Z,99124.47
2023-01-29T03:11:46.433Z,99137.13
2023-01-29T03:14:17.136Z,99135.94
2023-01-29T03:16:49.345Z,99139.88
2023-01-29T03:19:20.753Z,99144.16
2023-01-29T03:21:51.422Z,99136.28
2023-01-29T03:24:42.927Z,99124.09
2023-01-29T03:27:30.685Z,99129.50
2023-01-29T03:30:18.081Z,99128.84
2023-01-29T03:32:46.711Z,99131.56
2023-01-29T03:35:14.833Z,99132.38
2023-01-29T03:37:44.613Z,99133.59
2023-01-29T03:40:12.414Z,99142.75
2023-01-29T03:43:06.562Z,99145.78
2023-01-29T03:45:49.311Z,99136.22
2023-01-29T03:48:29.295Z,99132.13
2023-01-29T03:51:25.438Z,99132.22
2023-01-29T03:54:01.102Z,99136.06
2023-01-29T03:56:45.168Z,99133.41
2023-01-29T03:59:19.719Z,99136.16
2023-01-29T04:01:52.318Z,99141.59
2023-01-29T04:04:24.844Z,99140.00
2023-01-29T04:06:56.692Z,99133.78
2023-01-29T04:09:37.918Z,99127.69
2023-01-29T04:12:09.679Z,99135.00
2023-01-29T04:14:38.028Z,99120.53
2023-01-29T04:17:12.828Z,99121.78
2023-01-29T04:19:40.271Z,99120.34
2023-01-29T04:22:12.729Z,99113.13
2023-01-29T04:24:40.616Z,99114.28
2023-01-29T04:27:21.276Z,99112.72
2023-01-29T04:30:06.812Z,99113.44
2023-01-29T04:32:40.794Z,99110.81
2023-01-29T04:35:25.260Z,99101.59
2023-01-29T04:38:08.319Z,99091.72
2023-01-29T04:41:09.505Z,99097.91
2023-01-29T04:44:20.801Z,99085.09
2023-01-29T04:47:19.143Z,99082.47
2023-01-29T04:50:13.513Z,99077.88
2023-01-29T04:52:57.293Z,99072.06
2023-01-29T04:55:40.066Z,99059.06
2023-01-29T04:58:33.967Z,99054.75
2023-01-29T05:01:01.973Z,99045.72
2023-01-29T05:03:29.935Z,99044.59
2023-01-29T05:05:58.199Z,99039.97
2023-01-29T05:08:26.256Z,99028.97
2023-01-29T05:10:54.948Z,99031.59
2023-01-29T05:13:22.391Z,99030.41
2023-01-29T05:16:14.118Z,99027.03
2023-01-29T05:18:41.423Z,99033.50
2023-01-29T05:21:09.062Z,99033.09
2023-01-29T05:23:36.749Z,99041.84
2023-01-29T05:26:04.696Z,99032.66
2023-01-29T05:28:31.876Z,99029.97
2023-01-29T05:30:59.019Z,99023.47
2023-01-29T05:33:30.724Z,99037.19
2023-01-29T05:36:01.096Z,99035.34
2023-01-29T05:38:28.222Z,99030.38
2023-01-29T05:40:55.286Z,99033.81
2023-01-29T05:43:23.965Z,99034.16
2023-01-29T05:45:55.164Z,99027.75
2023-01-29T05:48:22.309Z,99026.38
2023-01-29T05:50:49.567Z,99023.84
2023-01-29T05:53:16.662Z,99005.53
2023-01-29T05:55:45.508Z,99019.72
2023-01-29T05:58:12.936Z,99022.47
2023-01-29T06:00:40.590Z,99027.50
2023-01-29T06:03:07.698Z,99029.47
2023-01-29T06:05:38.156Z,99036.28
2023-01-29T06:08:05.702Z,99036.25
2023-01-29T06:10:33.008Z,99040.38
2023-01-29T06:13:00.094Z,99041.13
2023-01-29T06:15:27.494Z,99039.28
2023-01-29T06:17:55.065Z,99040.03
2023-01-29T06:20:22.189Z,99043.53
2023-01-29T06:22:49.327Z,99058.41
2023-01-29T06:25:16.728Z,99059.19
2023-01-29T06:27:44.003Z,99062.22
2023-01-29T06:30:11.622Z,99066.81
2023-01-29T06:32:38.729Z,99063.41
2023-01-29T06:35:06.141Z,99069.53
2023-01-29T06:37:33.188Z,99067.97
2023-01-29T06:40:00.276Z,99066.78
2023-01-29T06:42:28.077Z,99066.03
2023-01-29T06:44:56.615Z,99062.19
2023-01-29T06:47:24.175Z,99058.81
2023-01-29T06:49:51.337Z,99058.78
2023-01-29T06:52:18.629Z,99061.84
2023-01-29T06:54:45.872Z,99067.31
2023-01-29T06:57:12.989Z,99075.34
2023-01-29T06:59:40.062Z,99074.66
2023-01-29T07:02:07.172Z,99086.16
2023-01-29T07:04:35.516Z,99086.97
2023-01-29T07:07:02.708Z,99100.38
2023-01-29T07:09:29.917Z,99110.66
2023-01-29T07:11:57.030Z,99112.94
2023-01-29T07:14:24.090Z,99117.53
2023-01-29T07:16:51.183Z,99127.00
2023-01-29T07:19:19.002Z,99133.00
2023-01-29T07:21:46.293Z,99133.75
2023-01-29T07:24:13.455Z,99140.16
2023-01-29T07:26:40.529Z,99134.38
2023-01-29T07:29:07.691Z,99138.50
2023-01-29T07:31:34.856Z,99138.84
2023-01-29T07:34:02.006Z,99147.97
2023-01-29T07:36:29.690Z,99150.31
2023-01-29T07:38:56.741Z,99159.84
2023-01-29T07:41:23.994Z,99164.44
2023-01-29T07:43:51.110Z,99159.50
2023-01-29T07:46:18.197Z,99157.94
2023-01-29T07:48:45.313Z,99152.59
2023-01-29T07:51:12.384Z,99154.50
2023-01-29T07:53:39.462Z,99162.53
2023-01-29T07:56:06.760Z,99157.56
2023-01-29T07:58:35.742Z,99154.16
2023-01-29T08:01:07.793Z,99154.91
2023-01-29T08:03:35.774Z,99149.09
2023-01-29T08:06:04.088Z,99150.59
2023-01-29T08:08:31.264Z,99139.84
2023-01-29T08:11:01.117Z,99140.16
2023-01-29T08:13:28.187Z,99133.66
2023-01-29T08:15:59.767Z,99126.03
2023-01-29T08:18:27.042Z,99133.25
2023-01-29T08:20:59.049Z,99128.66
2023-01-29T08:23:26.373Z,99126.03
2023-01-29T08:25:53.444Z,99119.53
2023-01-29T08:28:20.582Z,99117.94
2023-01-29T08:30:47.770Z,99108.41
2023-01-29T08:33:16.202Z,99109.50
2023-01-29T08:35:43.307Z,99102.03
2023-01-29T08:38:10.787Z,99108.53
2023-01-29T08:40:38.047Z,99110.13
2023-01-29T08:43:08.751Z,99101.28
2023-01-29T08:45:38.453Z,99101.69
2023-01-29T08:48:05.929Z,99106.66
2023-01-29T08:50:34.862Z,99107.47
2023-01-29T08:53:04.127Z,99096.72
2023-01-29T08:55:31.298Z,99089.47
2023-01-29T08:57:58.468Z,99098.56
2023-01-29T09:00:25.646Z,99093.94
2023-01-29T09:02:52.751Z,99107.22
2023-01-29T09:05:20.180Z,99112.94
2023-01-29T09:07:47.559Z,99117.03
2023-01-29T09:10:15.844Z,99123.44
2023-01-29T09:12:42.923Z,99122.63
2023-01-29T09:15:10.585Z,99123.75
2023-01-29T09:17:37.827Z,99105.72
2023-01-29T09:20:08.349Z,99106.44
2023-01-29T09:22:35.604Z,99098.84
2023-01-29T09:25:02.646Z,99107.59
2023-01-29T09:27:29.720Z,99099.16
2023-01-29T09:29:56.996Z,99108.66
2023-01-29T09:32:52.027Z,99107.03
2023-01-29T09:35:11.292Z,99107.72
2023-01-29T09:37:38.341Z,99101.56
2023-01-29T09:40:06.101Z,99106.91
2023-01-29T09:42:48.540Z,99107.13
2023-01-29T09:45:20.819Z,99105.03
2023-01-29T09:47:48.776Z,99099.56
2023-01-29T09:50:28.487Z,99091.06
2023-01-29T09:53:05.455Z,99091.91
2023-01-29T09:55:39.679Z,99099.19
2023-01-29T09:58:21.677Z,99092.69
2023-01-29T10:01:13.895Z,99072.88
2023-01-29T10:04:20.896Z,99069.06
2023-01-29T10:06:58.130Z,99043.06
2023-01-29T10:10:02.586Z,99040.72
2023-01-29T10:12:44.912Z,99025.81
2023-01-29T10:15:54.128Z,99018.09
2023-01-29T10:18:27.520Z,99020.31
2023-01-29T10:21:01.205Z,99012.31
2023-01-29T10:23:34.852Z,99009.19
2023-01-29T10:26:02.156Z,99019.38
2023-01-29T10:28:48.468Z,99009.00
2023-01-29T10:31:20.818Z,99014.53
2023-01-29T10:34:02.192Z,99028.50
2023-01-29T10:36:57.012Z,99033.81
2023-01-29T10:39:27.468Z,99027.53
2023-01-29T10:42:21.805Z,99022.25
2023-01-29T10:45:03.466Z,99017.44
2023-01-29T10:47:55.296Z,99003.19
2023-01-29T10:50:35.564Z,99007.47
2023-01-29T10:53:25.290Z,99001.56
2023-01-29T10:56:21.852Z,99004.53
2023-01-29T10:58:59.853Z,99001.75
2023-01-29T11:01:27.347Z,98994.75
2023-01-29T11:04:01.250Z,98985.47
2023-01-29T11:06:33.564Z,98970.13
2023-01-29T11:09:12.433Z,98968.22
2023-01-29T11:12:00.532Z,98955.91
2023-01-29T11:14:38.541Z,98956.66
2023-01-29T11:17:05.987Z,98946.25
2023-01-29T11:19:44.379Z,98935.94
2023-01-29T11:22:17.332Z,98937.31
2023-01-29T11:24:44.674Z,98928.59
2023-01-29T11:27:33.393Z,98939.56
2023-01-29T11:30:00.616Z,98935.88
2023-01-29T11:32:34.277Z,98916.56
2023-01-29T11:35:16.617Z,98916.94
2023-01-29T11:37:45.668Z,98888.06
2023-01-29T11:40:18.672Z,98879.59
2023-01-29T11:42:49.272Z,98878.66
2023-01-29T11:45:27.513Z,98882.53
2023-01-29T11:47:55.981Z,98885.69
2023-01-29T11:50:28.859Z,98889.16
2023-01-29T11:52:56.146Z,98892.00
2023-01-29T11:55:25.515Z,98882.34
2023-01-29T11:58:30.680Z,98896.66
2023-01-29T12:00:58.950Z,98875.41
2023-01-29T12:03:34.352Z,98869.72
2023-01-29T12:06:07.933Z,98860.28
2023-01-29T12:08:39.341Z,98857.06
2023-01-29T12:11:27.453Z,98856.59
2023-01-29T12:13:56.405Z,98847.50
2023-01-29T12:16:45.344Z,98859.28
2023-01-29T12:19:34.870Z,98872.50
2023-01-29T12:22:12.301Z,98882.31
2023-01-29T12:24:57.716Z,98881.31
2023-01-29T12:28:02.352Z,98867.78
2023-01-29T12:30:46.236Z,98860.06
2023-01-29T12:33:28.193Z,98854.88
2023-01-29T12:36:24.630Z,98845.81
2023-01-29T12:38:51.906Z,98838.63
2023-01-29T12:41:28.811Z,98827.09
2023-01-29T12:43:59.609Z,98814.38
2023-01-29T12:46:35.088Z,98802.00
2023-01-29T12:49:05.281Z,98801.69
2023-01-29T12:51:37.619Z,98799.41
2023-01-29T12:54:15.364Z,98782.97
2023-01-29T12:56:47.142Z,98786.75
2023-01-29T12:59:19.534Z,98782.75
2023-01-29T13:02:13.063Z,98798.88
2023-01-29T13:04:44.295Z,98801.91
2023-01-29T13:07:16.806Z,98802.00
2023-01-29T13:09:46.721Z,98800.41
2023-01-29T13:12:17.138Z,98797.38
2023-01-29T13:14:57.464Z,98798.56
2023-01-29T13:17:30.651Z,98795.00
2023-01-29T13:20:00.775Z,98805.69
2023-01-29T13:22:34.330Z,98793.75
2023-01-29T13:25:05.375Z,98793.41
2023-01-29T13:27:35.915Z,98785.88
2023-01-29T13:30:03.755Z,98776.75
2023-01-29T13:32:32.880Z,98768.66
2023-01-29T13:35:02.856Z,98770.16
2023-01-29T13:37:35.307Z,98778.75
2023-01-29T13:40:04.682Z,98774.78
2023-01-29T13:42:42.871Z,98771.44
2023-01-29T13:45:19.886Z,98776.81
2023-01-29T13:47:47.262Z,98778.09
2023-01-29T13:50:39.276Z,98793.16
2023-01-29T13:53:08.316Z,98783.59
2023-01-29T13:55:39.831Z,98777.78
2023-01-29T13:58:07.886Z,98780.91
2023-01-29T14:00:34.815Z,98790.91
2023-01-29T14:03:01.789Z,98773.69
2023-01-29T14:05:32.221Z,98765.19
2023-01-29T14:07:59.406Z,98773.03
2023-01-29T14:10:28.755Z,98774.53
2023-01-29T14:13:04.813Z,98765.06
2023-01-29T14:15:36.669Z,98761.50
2023-01-29T14:18:06.544Z,98761.06
2023-01-29T14:20:46.720Z,98760.75
2023-01-29T14:23:22.186Z,98758.06
2023-01-29T14:25:49.464Z,98757.31
2023-01-29T14:28:21.450Z,98754.94
2023-01-29T14:30:51.833Z,98750.31
2023-01-29T14:33:48.396Z,98746.03
2023-01-29T14:36:15.792Z,98744.75
2023-01-29T14:38:52.518Z,98740.13
2023-01-29T14:41:25.915Z,98741.81
2023-01-29T14:44:31.156Z,98753.34
2023-01-29T14:46:58.289Z,98748.63
2023-01-29T14:49:50.965Z,98745.50
2023-01-29T14:52:21.961Z,98748.28
2023-01-29T14:54:50.669Z,98760.22
2023-01-29T14:57:18.175Z,98761.72
2023-01-29T14:59:51.325Z,98763.66
2023-01-29T15:02:22.901Z,98762.69
2023-01-29T15:04:52.862Z,98766.00
2023-01-29T15:07:35.942Z,98766.06
2023-01-29T15:10:32.768Z,98757.13
2023-01-29T15:13:24.247Z,98750.69
2023-01-29T15:15:54.315Z,98746.69
2023-01-29T15:18:32.974Z,98746.69
2023-01-29T15:21:05.919Z,98747.63
2023-01-29T15:23:34.272Z,98753.00
2023-01-29T15:26:03.684Z,98756.97
2023-01-29T15:28:32.384Z,98762.25
2023-01-29T15:31:01.485Z,98755.25
2023-01-29T15:33:28.932Z,98756.13
2023-01-29T15:36:06.792Z,98754.28
2023-01-29T15:38:34.840Z,98755.03
2023-01-29T15:41:13.983Z,98743.72
2023-01-29T15:43:46.632Z,98748.84
2023-01-29T15:46:22.291Z,98736.28
2023-01-29T15:48:50.282Z,98735.53
2023-01-29T15:51:22.309Z,98736.69
2023-01-29T15:53:53.214Z,98744.34
2023-01-29T15:56:24.188Z,98740.22
2023-01-29T15:58:52.019Z,98738.41
2023-01-29T16:01:19.107Z,98735.72
2023-01-29T16:03:46.571Z,98737.22
2023-01-29T16:06:14.122Z,98732.34
2023-01-29T16:08:42.336Z,98738.66
2023-01-29T16:11:09.608Z,98738.75
2023-01-29T16:13:41.038Z,98730.28
2023-01-29T16:16:27.665Z,98731.13
2023-01-29T16:19:00.395Z,98738.84
2023-01-29T16:21:39.766Z,98736.56
2023-01-29T16:24:11.842Z,98732.81
2023-01-29T16:26:43.263Z,98730.22
2023-01-29T16:29:15.660Z,98717.63
2023-01-29T16:31:44.638Z,98718.91
2023-01-29T16:34:19.039Z,98718.50
2023-01-29T16:36:47.137Z,98720.31
2023-01-29T16:39:19.049Z,98722.34
2023-01-29T16:42:10.784Z,98712.63
2023-01-29T16:44:39.553Z,98716.91
2023-01-29T16:47:12.856Z,98715.41
2023-01-29T16:49:43.726Z,98708.53
2023-01-29T16:52:19.741Z,98711.22
2023-01-29T16:54:46.799Z,98709.69
2023-01-29T16:57:17.158Z,98709.78
2023-01-29T16:59:44.377Z,98697.97
2023-01-29T17:02:35.097Z,98709.19
2023-01-29T17:05:08.842Z,98708.53
2023-01-29T17:07:36.663Z,98710.88
2023-01-29T17:10:06.631Z,98703.00
2023-01-29T17:12:34.087Z,98708.78
2023-01-29T17:15:04.155Z,98708.97
2023-01-29T17:17:33.331Z,98707.44
2023-01-29T17:20:11.859Z,98709.44
2023-01-29T17:22:39.101Z,98720.16
2023-01-29T17:25:06.465Z,98712.97
2023-01-29T17:27:33.546Z,98711.03
2023-01-29T17:30:00.629Z,98711.47
2023-01-29T17:32:44.829Z,98709.69
2023-01-29T17:35:17.652Z,98711.19
2023-01-29T17:37:45.002Z,98702.72
2023-01-29T17:40:21.753Z,98711.53
2023-01-29T17:42:48.810Z,98701.66
2023-01-29T17:45:16.341Z,98703.91
2023-01-29T17:47:43.676Z,98700.47
2023-01-29T17:50:23.880Z,98699.78
2023-01-29T17:52:51.011Z,98702.13
2023-01-29T17:55:18.656Z,98700.22
2023-01-29T17:57:45.799Z,98699.41
2023-01-29T18:00:21.538Z,98701.31
2023-01-29T18:02:48.763Z,98691.00
2023-01-29T18:05:16.856Z,98686.38
2023-01-29T18:07:45.191Z,98685.63
2023-01-29T18:10:19.796Z,98684.06
2023-01-29T18:12:47.032Z,98684.41
2023-01-29T18:15:14.985Z,98678.69
2023-01-29T18:17:42.700Z,98682.56
2023-01-29T18:20:28.140Z,98678.69
2023-01-29T18:22:55.445Z,98677.19
2023-01-29T18:25:24.752Z,98674.91
2023-01-29T18:27:52.972Z,98669.91
2023-01-29T18:30:20.333Z,98672.59
2023-01-29T18:32:48.361Z,98673.66
2023-01-29T18:35:16.141Z,98676.34
2023-01-29T18:37:44.498Z,98669.06
2023-01-29T18:40:17.294Z,98672.50
2023-01-29T18:42:45.387Z,98652.56
2023-01-29T18:45:13.235Z,98652.56
2023-01-29T18:47:40.461Z,98645.59
2023-01-29T18:50:08.054Z,98644.09
2023-01-29T18:52:35.254Z,98638.06
2023-01-29T18:55:02.416Z,98624.34
2023-01-29T18:58:25.003Z,98626.59
2023-01-29T19:00:17.000Z,98628.09
2023-01-29T19:02:45.122Z,98628.84
2023-01-29T19:05:12.363Z,98629.94
2023-01-29T19:07:39.495Z,98622.66
2023-01-29T19:10:09.242Z,98615.78
2023-01-29T19:12:36.517Z,98615.03
2023-01-29T19:15:03.766Z,98612.69
2023-01-29T19:17:30.865Z,98609.59
2023-01-29T19:20:02.008Z,98610.75
2023-01-29T19:22:29.489Z,98604.63
2023-01-29T19:24:56.554Z,98591.91
2023-01-29T19:27:26.996Z,98597.34
2023-01-29T19:29:55.880Z,98590.16
2023-01-29T19:32:23.070Z,98590.56
2023-01-29T19:34:50.271Z,98589.50
2023-01-29T19:37:17.322Z,98576.59
2023-01-29T19:39:44.407Z,98569.41
2023-01-29T19:42:11.633Z,98567.81
2023-01-29T19:44:39.831Z,98563.63
2023-01-29T19:47:06.987Z,98560.19
2023-01-29T19:49:34.226Z,98557.69
2023-01-29T19:52:01.910Z,98556.66
2023-01-29T19:54:29.578Z,98559.03
2023-01-29T19:56:56.891Z,98567.47
2023-01-29T19:59:23.962Z,98564.81
2023-01-29T20:01:51.012Z,98569.06
2023-01-29T20:04:18.278Z,98567.22
2023-01-29T20:06:45.374Z,98561.53
2023-01-29T20:09:12.433Z,98564.38
2023-01-29T20:11:39.518Z,98561.69
2023-01-29T20:14:06.647Z,98566.63
2023-01-29T20:16:33.787Z,98562.03
2023-01-29T20:19:13.977Z,98560.09
2023-01-29T20:21:45.349Z,98554.47
2023-01-29T20:24:13.416Z,98556.50
2023-01-29T20:26:40.674Z,98547.03
2023-01-29T20:29:07.789Z,98551.72
2023-01-29T20:31:36.848Z,98544.13
2023-01-29T20:34:03.905Z,98529.97
2023-01-29T20:36:31.035Z,98534.59
2023-01-29T20:38:58.078Z,98521.19
2023-01-29T20:41:25.493Z,98522.34
2023-01-29T20:43:52.634Z,98521.59
2023-01-29T20:46:19.787Z,98529.56
2023-01-29T20:48:48.801Z,98530.31
2023-01-29T20:51:18.088Z,98533.06
2023-01-29T20:53:46.672Z,98527.69
2023-01-29T20:56:15.332Z,98528.88
2023-01-29T20:58:42.716Z,98538.84
2023-01-29T21:01:11.343Z,98531.97
2023-01-29T21:03:39.337Z,98519.75
2023-01-29T21:06:09.845Z,98508.63
2023-01-29T21:08:37.875Z,98500.25
2023-01-29T21:11:06.289Z,98488.47
2023-01-29T21:13:33.496Z,98482.69
2023-01-29T21:16:00.798Z,98483.13
2023-01-29T21:18:28.170Z,98475.84
2023-01-29T21:20:55.493Z,98483.50
2023-01-29T21:23:22.633Z,98475.16
2023-01-29T21:25:49.785Z,98476.59
2023-01-29T21:28:17.251Z,98471.97
2023-01-29T21:30:44.451Z,98466.97
2023-01-29T21:33:11.770Z,98458.94
2023-01-29T21:35:38.918Z,98455.00
2023-01-29T21:38:05.981Z,98461.00
2023-01-29T21:40:33.075Z,98454.16
2023-01-29T21:43:12.259Z,98448.38
2023-01-29T21:45:40.377Z,98448.03
2023-01-29T21:48:08.466Z,98422.50
2023-01-29T21:50:36.915Z,98416.41
2023-01-29T21:53:04.101Z,98412.22
2023-01-29T21:55:33.545Z,98402.28
2023-01-29T21:58:00.638Z,98406.22
2023-01-29T22:00:27.896Z,98387.13
2023-01-29T22:02:55.177Z,98375.59
2023-01-29T22:05:22.346Z,98376.34
2023-01-29T22:07:49.692Z,98373.25
2023-01-29T22:10:18.283Z,98370.06
2023-01-29T22:12:46.115Z,98371.47
2023-01-29T22:15:14.078Z,98357.13
2023-01-29T22:17:41.693Z,98344.50
2023-01-29T22:20:13.375Z,98327.34
2023-01-29T22:22:40.497Z,98339.13
2023-01-29T22:25:08.031Z,98330.91
2023-01-29T22:27:35.105Z,98326.63
2023-01-29T22:30:03.366Z,98315.09
2023-01-29T22:32:32.185Z,98317.34
2023-01-29T22:34:59.274Z,98301.16
2023-01-29T22:37:26.345Z,98297.63
2023-01-29T22:39:53.398Z,98280.38
2023-01-29T22:42:20.793Z,98270.41
2023-01-29T22:44:48.510Z,98275.34
2023-01-29T22:47:15.809Z,98270.72
2023-01-29T22:49:45.501Z,98266.88
2023-01-29T22:52:12.748Z,98257.25
2023-01-29T22:54:41.962Z,98253.38
2023-01-29T22:57:13.844Z,98250.28
2023-01-29T22:59:41.115Z,98238.81
2023-01-29T23:02:09.472Z,98244.91
2023-01-29T23:04:36.830Z,98234.06
2023-01-29T23:07:04.265Z,98242.03
2023-01-29T23:09:31.372Z,98241.59
2023-01-29T23:11:58.452Z,98227.75
2023-01-29T23:14:25.562Z,98216.59
2023-01-29T23:16:52.609Z,98219.94
2023-01-29T23:19:19.704Z,98221.44
2023-01-29T23:21:46.773Z,98209.53
2023-01-29T23:24:13.984Z,98206.84
2023-01-29T23:26:59.663Z,98200.75
2023-01-29T23:29:26.964Z,98201.50
2023-01-29T23:31:54.354Z,98196.13
2023-01-29T23:34:21.517Z,98190.03
2023-01-29T23:36:48.628Z,98186.59
2023-01-29T23:39:15.952Z,98186.16
2023-01-29T23:41:43.239Z,98178.56
2023-01-29T23:44:10.337Z,98174.81
2023-01-29T23:46:37.646Z,98179.44
2023-01-29T23:49:04.822Z,98171.72
2023-01-29T23:51:31.901Z,98167.84
2023-01-29T23:53:58.968Z,98177.91
2023-01-29T23:56:26.039Z,98168.06
2023-01-29T23:58:54.809Z,98153.16
